Terminal Aerodrome Forecast
Issued by NWS Chicago, IL

Home | Current Version | Previous Version | Text Only | Print | Product List | Glossary On
Versions: 1 2 3 4 5 6 7 8 9 10 11 12 13 14 15 16 17 18 19 20 21 22 23 24 25 26 27
161
FTUS43 KLOT 170908 AAB
TAFRFD
TAF AMD
KRFD 170908Z 1709/1806 32004KT 3SM -DZ BR VCSH OVC003
      TEMPO 1709/1711 1SM BR
     FM171200 27008KT 2SM -DZ BR OVC003
     FM171900 30007KT 2SM BR OVC003
     FM180300 30006KT 4SM -DZ BR OVC005=

USA.gov is the U.S. government's official web portal to all federal, state and local government web resources and services.